sensor_id;sensor_type;location;lat;lon;timestamp;pressure;altitude;pressure_sealevel;temperature;humidity
63006;BME280;53704;52.532;6.426;2023-02-28T00:00:20;103196.44;;;1.21;100.00
63006;BME280;53704;52.532;6.426;2023-02-28T00:02:46;103187.63;;;1.49;100.00
63006;BME280;53704;52.532;6.426;2023-02-28T00:05:14;103182.78;;;1.63;100.00
63006;BME280;53704;52.532;6.426;2023-02-28T00:07:40;103186.97;;;1.70;100.00
63006;BME280;53704;52.532;6.426;2023-02-28T00:10:09;103190.59;;;1.68;100.00
63006;BME280;53704;52.532;6.426;2023-02-28T00:12:36;103184.06;;;1.50;100.00
63006;BME280;53704;52.532;6.426;2023-02-28T00:15:05;103191.34;;;1.13;100.00
63006;BME280;53704;52.532;6.426;2023-02-28T00:17:30;103192.66;;;0.98;100.00
63006;BME280;53704;52.532;6.426;2023-02-28T00:19:56;103195.13;;;1.04;100.00
63006;BME280;53704;52.532;6.426;2023-02-28T00:22:22;103194.59;;;1.23;100.00
63006;BME280;53704;52.532;6.426;2023-02-28T00:24:48;103193.22;;;1.10;100.00
63006;BME280;53704;52.532;6.426;2023-02-28T00:27:14;103198.78;;;1.00;100.00
63006;BME280;53704;52.532;6.426;2023-02-28T00:29:40;103198.78;;;1.00;100.00
63006;BME280;53704;52.532;6.426;2023-02-28T00:32:06;103197.06;;;0.98;100.00
63006;BME280;53704;52.532;6.426;2023-02-28T00:34:32;103193.38;;;1.03;100.00
63006;BME280;53704;52.532;6.426;2023-02-28T00:37:06;103198.66;;;1.05;100.00
63006;BME280;53704;52.532;6.426;2023-02-28T00:39:34;103195.88;;;1.10;100.00
63006;BME280;53704;52.532;6.426;2023-02-28T00:42:00;103202.03;;;1.10;100.00
63006;BME280;53704;52.532;6.426;2023-02-28T00:44:27;103195.81;;;1.11;100.00
63006;BME280;53704;52.532;6.426;2023-02-28T00:46:52;103195.97;;;1.06;100.00
63006;BME280;53704;52.532;6.426;2023-02-28T00:49:19;103191.56;;;1.05;100.00
63006;BME280;53704;52.532;6.426;2023-02-28T00:51:45;103195.19;;;1.03;100.00
63006;BME280;53704;52.532;6.426;2023-02-28T00:54:11;103198.25;;;1.19;100.00
63006;BME280;53704;52.532;6.426;2023-02-28T00:56:36;103190.13;;;1.53;100.00
63006;BME280;53704;52.532;6.426;2023-02-28T00:59:02;103184.53;;;1.34;100.00
63006;BME280;53704;52.532;6.426;2023-02-28T01:01:27;103187.53;;;1.52;100.00
63006;BME280;53704;52.532;6.426;2023-02-28T01:03:52;103185.53;;;1.60;100.00
63006;BME280;53704;52.532;6.426;2023-02-28T01:06:18;103189.47;;;1.47;100.00
63006;BME280;53704;52.532;6.426;2023-02-28T01:08:43;103185.22;;;1.69;100.00
63006;BME280;53704;52.532;6.426;2023-02-28T01:11:11;103179.53;;;1.81;100.00
63006;BME280;53704;52.532;6.426;2023-02-28T01:13:37;103180.75;;;1.99;100.00
63006;BME280;53704;52.532;6.426;2023-02-28T01:16:02;103181.88;;;1.91;100.00
63006;BME280;53704;52.532;6.426;2023-02-28T01:18:28;103189.22;;;1.54;100.00
63006;BME280;53704;52.532;6.426;2023-02-28T01:20:53;103184.06;;;1.50;100.00
63006;BME280;53704;52.532;6.426;2023-02-28T01:23:20;103183.34;;;1.73;100.00
63006;BME280;53704;52.532;6.426;2023-02-28T01:25:49;103174.28;;;2.07;100.00
63006;BME280;53704;52.532;6.426;2023-02-28T01:28:14;103175.00;;;2.12;100.00
63006;BME280;53704;52.532;6.426;2023-02-28T01:30:39;103178.53;;;2.12;100.00
63006;BME280;53704;52.532;6.426;2023-02-28T01:33:05;103170.50;;;1.87;100.00
63006;BME280;53704;52.532;6.426;2023-02-28T01:35:35;103174.47;;;2.01;100.00
63006;BME280;53704;52.532;6.426;2023-02-28T01:38:01;103168.81;;;1.85;100.00
63006;BME280;53704;52.532;6.426;2023-02-28T01:40:27;103178.75;;;2.06;100.00
63006;BME280;53704;52.532;6.426;2023-02-28T01:42:52;103178.25;;;2.22;100.00
63006;BME280;53704;52.532;6.426;2023-02-28T01:45:19;103164.78;;;2.26;100.00
63006;BME280;53704;52.532;6.426;2023-02-28T01:47:48;103174.69;;;2.21;100.00
63006;BME280;53704;52.532;6.426;2023-02-28T01:50:22;103166.56;;;2.26;100.00
63006;BME280;53704;52.532;6.426;2023-02-28T01:52:48;103171.81;;;1.74;100.00
63006;BME280;53704;52.532;6.426;2023-02-28T01:55:17;103174.69;;;1.38;100.00
63006;BME280;53704;52.532;6.426;2023-02-28T01:57:50;103184.00;;;1.21;100.00
63006;BME280;53704;52.532;6.426;2023-02-28T02:00:20;103174.38;;;1.19;100.00
63006;BME280;53704;52.532;6.426;2023-02-28T02:02:51;103167.47;;;1.43;100.00
63006;BME280;53704;52.532;6.426;2023-02-28T02:05:19;103178.06;;;1.43;100.00
63006;BME280;53704;52.532;6.426;2023-02-28T02:07:48;103170.59;;;1.56;100.00
63006;BME280;53704;52.532;6.426;2023-02-28T02:10:59;103163.38;;;1.31;100.00
63006;BME280;53704;52.532;6.426;2023-02-28T02:13:24;103175.41;;;1.13;100.00
63006;BME280;53704;52.532;6.426;2023-02-28T02:16:00;103174.56;;;1.13;100.00
63006;BME280;53704;52.532;6.426;2023-02-28T02:18:54;103164.03;;;1.10;100.00
63006;BME280;53704;52.532;6.426;2023-02-28T02:30:14;103166.75;;;1.66;100.00
63006;BME280;53704;52.532;6.426;2023-02-28T02:35:24;103170.06;;;1.44;100.00
63006;BME280;53704;52.532;6.426;2023-02-28T02:37:59;103171.59;;;1.23;100.00
63006;BME280;53704;52.532;6.426;2023-02-28T02:43:20;103172.19;;;1.33;100.00
63006;BME280;53704;52.532;6.426;2023-02-28T02:45:53;103161.72;;;1.29;100.00
63006;BME280;53704;52.532;6.426;2023-02-28T02:48:24;103175.38;;;1.73;100.00
63006;BME280;53704;52.532;6.426;2023-02-28T02:50:57;103170.22;;;1.96;100.00
63006;BME280;53704;52.532;6.426;2023-02-28T02:53:32;103167.13;;;1.82;100.00
63006;BME280;53704;52.532;6.426;2023-02-28T02:55:59;103173.00;;;1.92;100.00
63006;BME280;53704;52.532;6.426;2023-02-28T02:58:29;103169.75;;;1.84;100.00
63006;BME280;53704;52.532;6.426;2023-02-28T03:00:58;103173.31;;;1.83;100.00
63006;BME280;53704;52.532;6.426;2023-02-28T03:03:25;103171.69;;;2.05;100.00
63006;BME280;53704;52.532;6.426;2023-02-28T03:05:58;103162.44;;;2.17;100.00
63006;BME280;53704;52.532;6.426;2023-02-28T03:08:25;103163.53;;;2.37;100.00
63006;BME280;53704;52.532;6.426;2023-02-28T03:10:59;103164.50;;;2.34;100.00
63006;BME280;53704;52.532;6.426;2023-02-28T03:16:35;103166.94;;;1.88;100.00
63006;BME280;53704;52.532;6.426;2023-02-28T03:27:29;103159.22;;;2.07;100.00
63006;BME280;53704;52.532;6.426;2023-02-28T03:30:22;103172.16;;;1.90;100.00
63006;BME280;53704;52.532;6.426;2023-02-28T03:33:15;103171.28;;;2.17;100.00
63006;BME280;53704;52.532;6.426;2023-02-28T03:35:47;103171.19;;;2.21;100.00
63006;BME280;53704;52.532;6.426;2023-02-28T03:41:13;103166.25;;;2.35;100.00
63006;BME280;53704;52.532;6.426;2023-02-28T03:43:43;103166.00;;;2.43;100.00
63006;BME280;53704;52.532;6.426;2023-02-28T03:46:13;103167.81;;;2.15;100.00
63006;BME280;53704;52.532;6.426;2023-02-28T03:48:44;103165.44;;;2.33;100.00
63006;BME280;53704;52.532;6.426;2023-02-28T03:51:15;103165.44;;;2.33;100.00
63006;BME280;53704;52.532;6.426;2023-02-28T03:53:51;103170.88;;;2.03;100.00
63006;BME280;53704;52.532;6.426;2023-02-28T03:56:21;103167.88;;;2.14;100.00
63006;BME280;53704;52.532;6.426;2023-02-28T04:01:43;103173.88;;;1.92;100.00
63006;BME280;53704;52.532;6.426;2023-02-28T04:04:10;103171.13;;;1.95;100.00
63006;BME280;53704;52.532;6.426;2023-02-28T04:06:37;103171.03;;;1.98;100.00
63006;BME280;53704;52.532;6.426;2023-02-28T04:09:04;103159.69;;;2.20;100.00
63006;BME280;53704;52.532;6.426;2023-02-28T04:11:36;103167.75;;;2.17;100.00
63006;BME280;53704;52.532;6.426;2023-02-28T04:14:03;103166.75;;;1.93;100.00
63006;BME280;53704;52.532;6.426;2023-02-28T04:16:30;103163.56;;;2.10;100.00
63006;BME280;53704;52.532;6.426;2023-02-28T04:18:56;103170.31;;;2.20;100.00
63006;BME280;53704;52.532;6.426;2023-02-28T04:21:28;103160.00;;;2.11;100.00
63006;BME280;53704;52.532;6.426;2023-02-28T04:23:54;103160.53;;;2.21;100.00
63006;BME280;53704;52.532;6.426;2023-02-28T04:26:19;103157.38;;;1.83;100.00
63006;BME280;53704;52.532;6.426;2023-02-28T04:28:45;103158.97;;;1.88;100.00
63006;BME280;53704;52.532;6.426;2023-02-28T04:31:10;103173.31;;;2.09;100.00
63006;BME280;53704;52.532;6.426;2023-02-28T04:33:36;103158.69;;;2.23;100.00
63006;BME280;53704;52.532;6.426;2023-02-28T04:36:04;103160.28;;;2.02;100.00
63006;BME280;53704;52.532;6.426;2023-02-28T04:38:33;103160.75;;;2.14;100.00
63006;BME280;53704;52.532;6.426;2023-02-28T04:40:59;103163.19;;;2.21;100.00
63006;BME280;53704;52.532;6.426;2023-02-28T04:43:26;103159.75;;;2.19;100.00
63006;BME280;53704;52.532;6.426;2023-02-28T04:45:52;103154.84;;;1.78;100.00
63006;BME280;53704;52.532;6.426;2023-02-28T04:48:17;103165.75;;;2.24;100.00
63006;BME280;53704;52.532;6.426;2023-02-28T04:50:43;103160.50;;;1.67;100.00
63006;BME280;53704;52.532;6.426;2023-02-28T04:53:08;103171.59;;;1.52;100.00
63006;BME280;53704;52.532;6.426;2023-02-28T04:55:34;103168.81;;;1.85;100.00
63006;BME280;53704;52.532;6.426;2023-02-28T04:57:59;103160.84;;;2.11;100.00
63006;BME280;53704;52.532;6.426;2023-02-28T05:00:25;103163.34;;;2.16;100.00
63006;BME280;53704;52.532;6.426;2023-02-28T05:02:50;103161.50;;;2.18;100.00
63006;BME280;53704;52.532;6.426;2023-02-28T05:05:15;103152.47;;;2.24;100.00
63006;BME280;53704;52.532;6.426;2023-02-28T05:07:43;103153.66;;;1.60;100.00
63006;BME280;53704;52.532;6.426;2023-02-28T05:10:10;103156.72;;;1.18;100.00
63006;BME280;53704;52.532;6.426;2023-02-28T05:12:36;103160.22;;;1.18;100.00
63006;BME280;53704;52.532;6.426;2023-02-28T05:15:01;103171.72;;;1.19;100.00
63006;BME280;53704;52.532;6.426;2023-02-28T05:17:27;103167.53;;;1.10;100.00
63006;BME280;53704;52.532;6.426;2023-02-28T05:19:53;103168.44;;;1.09;100.00
63006;BME280;53704;52.532;6.426;2023-02-28T05:22:18;103165.69;;;1.72;100.00
63006;BME280;53704;52.532;6.426;2023-02-28T05:24:44;103158.44;;;2.04;100.00
63006;BME280;53704;52.532;6.426;2023-02-28T05:27:10;103153.72;;;1.87;100.00
63006;BME280;53704;52.532;6.426;2023-02-28T05:29:35;103172.34;;;1.57;100.00
63006;BME280;53704;52.532;6.426;2023-02-28T05:32:10;103160.59;;;1.92;100.00
63006;BME280;53704;52.532;6.426;2023-02-28T05:34:40;103154.53;;;2.15;100.00
63006;BME280;53704;52.532;6.426;2023-02-28T05:37:06;103151.28;;;1.79;100.00
63006;BME280;53704;52.532;6.426;2023-02-28T05:39:32;103152.34;;;1.73;100.00
63006;BME280;53704;52.532;6.426;2023-02-28T05:41:58;103157.47;;;2.06;100.00
63006;BME280;53704;52.532;6.426;2023-02-28T05:44:24;103157.69;;;1.43;100.00
63006;BME280;53704;52.532;6.426;2023-02-28T05:46:49;103167.25;;;1.21;100.00
63006;BME280;53704;52.532;6.426;2023-02-28T05:49:15;103168.06;;;1.23;100.00
63006;BME280;53704;52.532;6.426;2023-02-28T05:51:40;103165.84;;;1.37;100.00
63006;BME280;53704;52.532;6.426;2023-02-28T05:54:06;103177.09;;;1.17;100.00
63006;BME280;53704;52.532;6.426;2023-02-28T05:56:32;103174.13;;;0.97;100.00
63006;BME280;53704;52.532;6.426;2023-02-28T05:58:59;103177.66;;;0.97;100.00
63006;BME280;53704;52.532;6.426;2023-02-28T06:01:40;103164.38;;;1.57;100.00
63006;BME280;53704;52.532;6.426;2023-02-28T06:04:07;103171.84;;;1.72;100.00
63006;BME280;53704;52.532;6.426;2023-02-28T06:06:33;103176.09;;;1.50;100.00
63006;BME280;53704;52.532;6.426;2023-02-28T06:09:05;103170.66;;;1.54;100.00
63006;BME280;53704;52.532;6.426;2023-02-28T06:11:31;103172.81;;;1.12;100.00
63006;BME280;53704;52.532;6.426;2023-02-28T06:13:57;103173.63;;;1.14;100.00
63006;BME280;53704;52.532;6.426;2023-02-28T06:16:25;103183.75;;;0.99;100.00
63006;BME280;53704;52.532;6.426;2023-02-28T06:18:51;103177.72;;;0.94;100.00
63006;BME280;53704;52.532;6.426;2023-02-28T06:21:18;103185.91;;;1.18;100.00
63006;BME280;53704;52.532;6.426;2023-02-28T06:23:44;103183.41;;;1.12;100.00
63006;BME280;53704;52.532;6.426;2023-02-28T06:26:10;103180.16;;;1.02;100.00
63006;BME280;53704;52.532;6.426;2023-02-28T06:28:35;103191.91;;;0.93;100.00
63006;BME280;53704;52.532;6.426;2023-02-28T06:31:06;103185.91;;;0.86;100.00
63006;BME280;53704;52.532;6.426;2023-02-28T06:33:32;103180.59;;;0.86;100.00
63006;BME280;53704;52.532;6.426;2023-02-28T06:35:58;103197.28;;;0.90;100.00
63006;BME280;53704;52.532;6.426;2023-02-28T06:38:23;103192.56;;;1.31;100.00
63006;BME280;53704;52.532;6.426;2023-02-28T06:40:56;103183.69;;;1.62;100.00
63006;BME280;53704;52.532;6.426;2023-02-28T06:43:22;103191.59;;;1.63;100.00
63006;BME280;53704;52.532;6.426;2023-02-28T06:45:48;103192.91;;;1.78;100.00
63006;BME280;53704;52.532;6.426;2023-02-28T06:48:14;103192.28;;;1.98;100.00
63006;BME280;53704;52.532;6.426;2023-02-28T06:50:39;103203.09;;;1.92;100.00
63006;BME280;53704;52.532;6.426;2023-02-28T06:53:05;103199.59;;;1.92;100.00
63006;BME280;53704;52.532;6.426;2023-02-28T06:55:30;103205.66;;;1.67;100.00
63006;BME280;53704;52.532;6.426;2023-02-28T06:57:56;103204.03;;;1.90;100.00
63006;BME280;53704;52.532;6.426;2023-02-28T07:00:22;103197.97;;;1.86;100.00
63006;BME280;53704;52.532;6.426;2023-02-28T07:02:47;103193.75;;;1.80;100.00
63006;BME280;53704;52.532;6.426;2023-02-28T07:05:13;103198.63;;;1.93;100.00
63006;BME280;53704;52.532;6.426;2023-02-28T07:07:39;103200.81;;;1.80;100.00
63006;BME280;53704;52.532;6.426;2023-02-28T07:10:10;103208.69;;;1.55;100.00
63006;BME280;53704;52.532;6.426;2023-02-28T07:12:36;103221.53;;;1.69;100.00
63006;BME280;53704;52.532;6.426;2023-02-28T07:15:02;103220.13;;;1.87;100.00
63006;BME280;53704;52.532;6.426;2023-02-28T07:17:28;103217.69;;;2.07;100.00
63006;BME280;53704;52.532;6.426;2023-02-28T07:19:53;103228.66;;;1.96;100.00
63006;BME280;53704;52.532;6.426;2023-02-28T07:22:19;103226.66;;;2.03;100.00
63006;BME280;53704;52.532;6.426;2023-02-28T07:24:44;103244.72;;;1.63;100.00
63006;BME280;53704;52.532;6.426;2023-02-28T07:27:09;103248.94;;;1.41;100.00
63006;BME280;53704;52.532;6.426;2023-02-28T07:29:35;103234.72;;;1.42;100.00
63006;BME280;53704;52.532;6.426;2023-02-28T07:32:01;103232.91;;;1.44;100.00
63006;BME280;53704;52.532;6.426;2023-02-28T07:34:26;103237.44;;;1.40;100.00
63006;BME280;53704;52.532;6.426;2023-02-28T07:36:53;103235.53;;;1.46;100.00
63006;BME280;53704;52.532;6.426;2023-02-28T07:39:20;103231.56;;;1.59;100.00
63006;BME280;53704;52.532;6.426;2023-02-28T07:41:46;103232.53;;;1.56;100.00
63006;BME280;53704;52.532;6.426;2023-02-28T07:44:11;103236.25;;;1.80;100.00
63006;BME280;53704;52.532;6.426;2023-02-28T07:46:37;103241.09;;;1.66;100.00
63006;BME280;53704;52.532;6.426;2023-02-28T07:49:03;103241.97;;;1.67;100.00
63006;BME280;53704;52.532;6.426;2023-02-28T07:51:29;103233.03;;;1.69;100.00
63006;BME280;53704;52.532;6.426;2023-02-28T07:53:55;103250.88;;;1.64;100.00
63006;BME280;53704;52.532;6.426;2023-02-28T07:56:21;103247.69;;;1.83;100.00
63006;BME280;53704;52.532;6.426;2023-02-28T07:58:46;103252.38;;;1.74;100.00
63006;BME280;53704;52.532;6.426;2023-02-28T08:01:12;103262.31;;;1.96;100.00
63006;BME280;53704;52.532;6.426;2023-02-28T08:03:38;103252.69;;;2.20;100.00
63006;BME280;53704;52.532;6.426;2023-02-28T08:06:06;103247.13;;;2.01;100.00
63006;BME280;53704;52.532;6.426;2023-02-28T08:08:31;103253.75;;;2.14;100.00
63006;BME280;53704;52.532;6.426;2023-02-28T08:11:01;103256.13;;;2.24;100.00
63006;BME280;53704;52.532;6.426;2023-02-28T08:13:28;103250.91;;;2.21;100.00
63006;BME280;53704;52.532;6.426;2023-02-28T08:15:54;103254.03;;;2.05;100.00
63006;BME280;53704;52.532;6.426;2023-02-28T08:18:21;103250.56;;;2.03;100.00
63006;BME280;53704;52.532;6.426;2023-02-28T08:20:47;103246.16;;;2.02;100.00
63006;BME280;53704;52.532;6.426;2023-02-28T08:23:13;103238.00;;;2.08;100.00
63006;BME280;53704;52.532;6.426;2023-02-28T08:25:39;103242.56;;;2.05;100.00
63006;BME280;53704;52.532;6.426;2023-02-28T08:28:04;103254.47;;;2.20;100.00
63006;BME280;53704;52.532;6.426;2023-02-28T08:30:30;103250.63;;;2.02;100.00
63006;BME280;53704;52.532;6.426;2023-02-28T08:32:55;103254.19;;;2.01;100.00
63006;BME280;53704;52.532;6.426;2023-02-28T08:35:21;103249.66;;;2.04;100.00
63006;BME280;53704;52.532;6.426;2023-02-28T08:37:49;103254.72;;;2.12;100.00
63006;BME280;53704;52.532;6.426;2023-02-28T08:40:16;103258.47;;;2.06;100.00
63006;BME280;53704;52.532;6.426;2023-02-28T08:42:47;103257.50;;;2.09;100.00
63006;BME280;53704;52.532;6.426;2023-02-28T08:45:14;103256.31;;;2.17;100.00
63006;BME280;53704;52.532;6.426;2023-02-28T08:47:39;103252.22;;;2.07;100.00
63006;BME280;53704;52.532;6.426;2023-02-28T08:50:06;103264.53;;;2.10;100.00
63006;BME280;53704;52.532;6.426;2023-02-28T08:52:32;103262.28;;;2.24;100.00
63006;BME280;53704;52.532;6.426;2023-02-28T08:54:58;103261.94;;;2.35;100.00
63006;BME280;53704;52.532;6.426;2023-02-28T08:57:23;103254.44;;;2.48;100.00
63006;BME280;53704;52.532;6.426;2023-02-28T08:59:51;103254.78;;;2.37;100.00
63006;BME280;53704;52.532;6.426;2023-02-28T09:02:16;103260.94;;;2.39;100.00
63006;BME280;53704;52.532;6.426;2023-02-28T09:04:42;103252.19;;;2.35;100.00
63006;BME280;53704;52.532;6.426;2023-02-28T09:07:10;103256.13;;;2.50;100.00
63006;BME280;53704;52.532;6.426;2023-02-28T09:09:36;103253.22;;;2.58;100.00
63006;BME280;53704;52.532;6.426;2023-02-28T09:12:01;103264.50;;;2.65;100.00
63006;BME280;53704;52.532;6.426;2023-02-28T09:14:27;103260.41;;;2.54;100.00
63006;BME280;53704;52.532;6.426;2023-02-28T09:16:53;103262.88;;;2.61;100.00
63006;BME280;53704;52.532;6.426;2023-02-28T09:19:18;103266.97;;;2.71;100.00
63006;BME280;53704;52.532;6.426;2023-02-28T09:21:44;103263.00;;;2.56;100.00
63006;BME280;53704;52.532;6.426;2023-02-28T09:24:09;103263.91;;;2.57;96.69
63006;BME280;53704;52.532;6.426;2023-02-28T09:26:37;103260.88;;;2.67;93.59
63006;BME280;53704;52.532;6.426;2023-02-28T09:29:02;103263.00;;;2.83;92.17
63006;BME280;53704;52.532;6.426;2023-02-28T09:31:29;103265.22;;;2.95;90.13
63006;BME280;53704;52.532;6.426;2023-02-28T09:33:56;103263.84;;;2.85;82.54
63006;BME280;53704;52.532;6.426;2023-02-28T09:36:23;103262.25;;;3.04;83.67
63006;BME280;53704;52.532;6.426;2023-02-28T09:38:49;103254.25;;;3.04;79.47
63006;BME280;53704;52.532;6.426;2023-02-28T09:41:33;103257.69;;;3.08;79.07
63006;BME280;53704;52.532;6.426;2023-02-28T09:44:04;103247.47;;;2.96;80.37
63006;BME280;53704;52.532;6.426;2023-02-28T09:46:37;103251.38;;;3.11;77.51
63006;BME280;53704;52.532;6.426;2023-02-28T09:49:18;103257.63;;;3.10;78.86
63006;BME280;53704;52.532;6.426;2023-02-28T09:52:05;103251.44;;;3.09;80.57
63006;BME280;53704;52.532;6.426;2023-02-28T09:54:34;103252.81;;;3.19;81.03
63006;BME280;53704;52.532;6.426;2023-02-28T10:05:05;103255.03;;;3.55;75.57
63006;BME280;53704;52.532;6.426;2023-02-28T10:09:58;103262.47;;;3.47;71.34
63006;BME280;53704;52.532;6.426;2023-02-28T10:12:27;103265.13;;;3.47;72.97
63006;BME280;53704;52.532;6.426;2023-02-28T10:14:55;103260.50;;;3.52;71.22
63006;BME280;53704;52.532;6.426;2023-02-28T10:17:32;103257.25;;;3.44;69.78
63006;BME280;53704;52.532;6.426;2023-02-28T10:20:06;103253.31;;;3.78;70.73
63006;BME280;53704;52.532;6.426;2023-02-28T10:23:09;103254.13;;;3.80;68.85
63006;BME280;53704;52.532;6.426;2023-02-28T10:25:34;103250.28;;;3.63;66.10
63006;BME280;53704;52.532;6.426;2023-02-28T10:28:12;103248.03;;;3.76;69.30
63006;BME280;53704;52.532;6.426;2023-02-28T10:30:48;103245.97;;;3.61;66.41
63006;BME280;53704;52.532;6.426;2023-02-28T10:33:26;103248.19;;;3.95;70.96
63006;BME280;53704;52.532;6.426;2023-02-28T10:35:53;103245.19;;;4.03;68.67
63006;BME280;53704;52.532;6.426;2023-02-28T10:38:25;103245.47;;;3.97;69.13
63006;BME280;53704;52.532;6.426;2023-02-28T10:40:51;103246.00;;;4.05;69.01
63006;BME280;53704;52.532;6.426;2023-02-28T10:46:18;103247.53;;;4.33;69.86
63006;BME280;53704;52.532;6.426;2023-02-28T10:49:03;103242.16;;;4.55;69.69
63006;BME280;53704;52.532;6.426;2023-02-28T10:51:38;103249.25;;;4.56;70.79
63006;BME280;53704;52.532;6.426;2023-02-28T10:54:04;103242.09;;;4.57;69.58
63006;BME280;53704;52.532;6.426;2023-02-28T10:56:31;103251.47;;;4.67;66.51
63006;BME280;53704;52.532;6.426;2023-02-28T10:59:03;103247.31;;;4.80;67.87
63006;BME280;53704;52.532;6.426;2023-02-28T11:07:20;103239.09;;;5.05;66.88
63006;BME280;53704;52.532;6.426;2023-02-28T11:09:51;103240.66;;;5.30;66.22
63006;BME280;53704;52.532;6.426;2023-02-28T11:12:23;103236.56;;;5.42;68.80
63006;BME280;53704;52.532;6.426;2023-02-28T11:14:53;103237.50;;;5.22;65.01
63006;BME280;53704;52.532;6.426;2023-02-28T11:17:24;103234.69;;;5.44;65.40
63006;BME280;53704;52.532;6.426;2023-02-28T11:19:53;103228.59;;;5.40;66.62
63006;BME280;53704;52.532;6.426;2023-02-28T11:22:28;103219.88;;;5.56;65.41
63006;BME280;53704;52.532;6.426;2023-02-28T11:24:57;103227.41;;;5.48;66.59
63006;BME280;53704;52.532;6.426;2023-02-28T11:29:53;103215.09;;;5.82;65.15
63006;BME280;53704;52.532;6.426;2023-02-28T11:32:20;103213.69;;;5.74;62.56
63006;BME280;53704;52.532;6.426;2023-02-28T11:34:59;103209.91;;;5.78;63.18
63006;BME280;53704;52.532;6.426;2023-02-28T11:37:27;103201.81;;;5.80;63.51
63006;BME280;53704;52.532;6.426;2023-02-28T11:39:53;103203.53;;;6.00;62.77
63006;BME280;53704;52.532;6.426;2023-02-28T11:45:43;103202.19;;;6.28;61.62
63006;BME280;53704;52.532;6.426;2023-02-28T11:48:22;103196.88;;;6.09;62.43
63006;BME280;53704;52.532;6.426;2023-02-28T12:09:40;103183.16;;;6.51;60.52
63006;BME280;53704;52.532;6.426;2023-02-28T12:12:23;103182.53;;;6.80;59.05
63006;BME280;53704;52.532;6.426;2023-02-28T12:23:00;103182.53;;;6.80;57.79
63006;BME280;53704;52.532;6.426;2023-02-28T12:28:16;103169.81;;;7.01;58.84
63006;BME280;53704;52.532;6.426;2023-02-28T12:30:51;103172.16;;;6.91;58.20
63006;BME280;53704;52.532;6.426;2023-02-28T12:33:22;103172.69;;;7.14;59.36
63006;BME280;53704;52.532;6.426;2023-02-28T12:35:54;103172.44;;;6.51;55.98
63006;BME280;53704;52.532;6.426;2023-02-28T12:38:24;103164.66;;;7.14;59.27
63006;BME280;53704;52.532;6.426;2023-02-28T12:41:03;103168.06;;;7.49;57.38
63006;BME280;53704;52.532;6.426;2023-02-28T12:43:38;103164.31;;;7.04;56.66
63006;BME280;53704;52.532;6.426;2023-02-28T12:48:41;103154.75;;;6.82;55.55
63006;BME280;53704;52.532;6.426;2023-02-28T12:51:08;103153.25;;;7.10;57.35
63006;BME280;53704;52.532;6.426;2023-02-28T12:53:54;103148.03;;;6.91;55.85
63006;BME280;53704;52.532;6.426;2023-02-28T12:56:30;103144.25;;;7.11;57.63
63006;BME280;53704;52.532;6.426;2023-02-28T12:59:23;103148.31;;;7.02;54.59
63006;BME280;53704;52.532;6.426;2023-02-28T13:04:46;103129.59;;;7.34;54.64
63006;BME280;53704;52.532;6.426;2023-02-28T13:10:22;103125.06;;;7.67;58.18
63006;BME280;53704;52.532;6.426;2023-02-28T13:12:49;103122.09;;;7.87;54.38
63006;BME280;53704;52.532;6.426;2023-02-28T13:15:26;103131.38;;;8.12;54.67
63006;BME280;53704;52.532;6.426;2023-02-28T13:17:56;103121.56;;;7.96;52.97
63006;BME280;53704;52.532;6.426;2023-02-28T13:20:31;103121.78;;;8.08;54.64
63006;BME280;53704;52.532;6.426;2023-02-28T13:22:59;103116.94;;;8.14;53.71
63006;BME280;53704;52.532;6.426;2023-02-28T13:28:12;103117.47;;;7.27;52.02
63006;BME280;53704;52.532;6.426;2023-02-28T13:36:22;103105.81;;;7.28;51.10
63006;BME280;53704;52.532;6.426;2023-02-28T13:38:50;103104.16;;;7.10;53.12
63006;BME280;53704;52.532;6.426;2023-02-28T13:46:33;103104.00;;;8.21;53.38
63006;BME280;53704;52.532;6.426;2023-02-28T13:51:52;103101.91;;;8.41;52.14
63006;BME280;53704;52.532;6.426;2023-02-28T14:02:40;103095.44;;;8.45;54.87
63006;BME280;53704;52.532;6.426;2023-02-28T14:07:50;103096.09;;;8.04;50.63
63006;BME280;53704;52.532;6.426;2023-02-28T14:10:30;103096.41;;;8.13;52.45
63006;BME280;53704;52.532;6.426;2023-02-28T14:13:00;103100.50;;;8.35;53.46
63006;BME280;53704;52.532;6.426;2023-02-28T14:15:43;103094.88;;;8.68;51.79
63006;BME280;53704;52.532;6.426;2023-02-28T14:21:21;103091.59;;;8.49;52.49
63006;BME280;53704;52.532;6.426;2023-02-28T14:31:58;103090.28;;;8.56;52.90
63006;BME280;53704;52.532;6.426;2023-02-28T14:34:45;103091.38;;;8.38;54.37
63006;BME280;53704;52.532;6.426;2023-02-28T14:37:20;103098.28;;;7.03;52.15
63006;BME280;53704;52.532;6.426;2023-02-28T14:39:46;103086.53;;;7.53;53.76
63006;BME280;53704;52.532;6.426;2023-02-28T14:42:34;103086.97;;;7.46;53.36
63006;BME280;53704;52.532;6.426;2023-02-28T14:45:01;103085.66;;;7.21;52.77
63006;BME280;53704;52.532;6.426;2023-02-28T14:47:36;103088.34;;;6.56;53.81
63006;BME280;53704;52.532;6.426;2023-02-28T14:50:03;103085.59;;;7.06;53.66
63006;BME280;53704;52.532;6.426;2023-02-28T14:52:31;103091.06;;;7.37;54.99
63006;BME280;53704;52.532;6.426;2023-02-28T14:55:00;103094.47;;;8.01;55.33
63006;BME280;53704;52.532;6.426;2023-02-28T14:57:31;103086.97;;;7.92;56.95
63006;BME280;53704;52.532;6.426;2023-02-28T15:02:25;103088.97;;;7.10;54.00
63006;BME280;53704;52.532;6.426;2023-02-28T15:05:54;103089.66;;;6.48;52.53
63006;BME280;53704;52.532;6.426;2023-02-28T15:08:15;103087.81;;;6.49;53.15
63006;BME280;53704;52.532;6.426;2023-02-28T15:11:21;103087.34;;;6.58;54.90
63006;BME280;53704;52.532;6.426;2023-02-28T15:13:52;103080.38;;;6.87;60.25
63006;BME280;53704;52.532;6.426;2023-02-28T15:16:37;103084.13;;;6.34;55.05
63006;BME280;53704;52.532;6.426;2023-02-28T15:19:07;103075.28;;;6.49;58.12